»·PEaware :: N326MC KGJT-KCOS

N326MC :: KGJT-KCOS

FLIGHT INFORMATION

Flight Status: Arrived
Operator: Privately registered:
United States
More flights under this callsign
Pilot: Anonymous 5456 (5456)
Aircraft: PIPER PA-30 TWIN COMANCHE
(PA30)
More flights by this aircraft type
Origin: KGJT Walker
United States
Destination: KCOS City Of Colorado Springs Mun
United States
More flights between these airports :: More routes between these airports
Route: +
File this flight plan on PilotEdge
Remarks:
Altitude:
(Current/Filed)
0ft
Speed:
(Current/Filed)
0kts
Departed: 29-Sep-17 01:29 PM
Arrived: 29-Sep-17 03:29 PM
Distance/Time
Traveled:
179nm/2:00
Distance/Time
To Go:
Arrived

Flight Plot

Page will automatically refresh every two minutes.

Flight plan parsing failed; only flown route is shown


Map Options




Map Legend


Flown Route
Filed Route
Departure Airport
Arrival Airport
Navaid (VOR, NDB)
Fix

Horizontal Profiles

Position Reports

Time Latitude Longitude Heading Altitude Ground
Speed
29-Sep-17 13:15 39.119085 -108.521312 127 4859ft 0kts
29-Sep-17 13:16 39.119085 -108.521312 127 4859ft 0kts
29-Sep-17 13:17 39.119085 -108.521312 127 4859ft 0kts
29-Sep-17 13:18 39.119085 -108.521312 127 4859ft 0kts
29-Sep-17 13:19 39.119085 -108.521312 127 4859ft 0kts
29-Sep-17 13:20 39.119085 -108.521312 127 4859ft 0kts
29-Sep-17 13:21 39.119085 -108.521312 127 4859ft 0kts
29-Sep-17 13:22 39.119085 -108.521312 127 4859ft 0kts
29-Sep-17 13:23 39.119085 -108.521312 127 4859ft 0kts
29-Sep-17 13:24 39.119085 -108.521312 127 4859ft 0kts
29-Sep-17 13:25 39.119085 -108.521312 127 4859ft 0kts
29-Sep-17 13:26 39.119096 -108.521141 33 4859ft 2kts
29-Sep-17 13:27 39.121298 -108.521917 310 4859ft 10kts
29-Sep-17 13:28 39.123812 -108.526430 303 4860ft 15kts
29-Sep-17 13:29 39.126005 -108.530430 307 4859ft 13kts
29-Sep-17 13:30 39.128801 -108.535493 304 4859ft 19kts
29-Sep-17 13:31 39.132062 -108.541445 304 4859ft 20kts
29-Sep-17 13:32 39.134552 -108.544596 37 4859ft 10kts
29-Sep-17 13:33 39.131642 -108.538287 124 4862ft 90kts
29-Sep-17 13:34 39.110206 -108.515098 164 6112ft 104kts
29-Sep-17 13:35 39.082931 -108.505967 164 7425ft 103kts
29-Sep-17 13:36 39.054246 -108.497591 162 8564ft 111kts
29-Sep-17 13:37 39.022054 -108.479690 150 9427ft 128kts
29-Sep-17 13:38 38.997314 -108.463875 153 10484ft 113kts
29-Sep-17 13:39 38.963824 -108.443629 153 11519ft 133kts
29-Sep-17 13:40 38.931671 -108.423819 153 11510ft 168kts
29-Sep-17 13:41 38.883122 -108.393727 153 11475ft 180kts
29-Sep-17 13:42 38.842251 -108.368014 153 11473ft 180kts
29-Sep-17 13:43 38.800899 -108.341214 153 11472ft 180kts
29-Sep-17 13:44 38.765229 -108.315928 131 11453ft 171kts
29-Sep-17 13:45 38.739160 -108.268110 125 11469ft 160kts
29-Sep-17 13:46 38.714515 -108.221654 125 11471ft 157kts
29-Sep-17 13:47 38.690101 -108.175591 125 11472ft 156kts
29-Sep-17 13:48 38.665797 -108.129702 125 11473ft 156kts
29-Sep-17 13:49 38.641280 -108.083404 125 11475ft 159kts
29-Sep-17 13:50 38.616354 -108.036354 125 11473ft 161kts
29-Sep-17 13:51 38.591225 -107.989300 125 11489ft 161kts
29-Sep-17 13:52 38.565674 -107.942718 125 11500ft 162kts
29-Sep-17 13:53 38.540422 -107.896659 125 11500ft 163kts
29-Sep-17 13:54 38.515130 -107.850502 124 11500ft 163kts
29-Sep-17 13:55 38.494050 -107.800472 97 11500ft 163kts
29-Sep-17 13:56 38.489810 -107.743140 94 11500ft 163kts
29-Sep-17 13:57 38.485920 -107.685556 94 11499ft 163kts
29-Sep-17 13:58 38.482049 -107.627958 94 11499ft 163kts
29-Sep-17 13:59 38.477117 -107.570850 94 11539ft 164kts
29-Sep-17 14:00 38.470175 -107.512122 94 11554ft 173kts
29-Sep-17 14:01 38.466116 -107.450259 95 11555ft 178kts
29-Sep-17 14:02 38.463818 -107.387169 94 11552ft 178kts
29-Sep-17 14:03 38.461639 -107.326409 94 11552ft 177kts
29-Sep-17 14:04 38.459572 -107.263503 94 11551ft 178kts
29-Sep-17 14:05 38.457717 -107.200340 94 11554ft 180kts
29-Sep-17 14:06 38.455414 -107.138222 94 11526ft 172kts
29-Sep-17 14:07 38.453522 -107.078572 94 11524ft 165kts
29-Sep-17 14:08 38.451782 -107.020657 94 11526ft 163kts
29-Sep-17 14:09 38.450052 -106.962579 94 11462ft 165kts
29-Sep-17 14:10 38.448362 -106.904780 94 11462ft 163kts
29-Sep-17 14:11 38.446712 -106.847317 94 11462ft 163kts
29-Sep-17 14:12 38.445081 -106.789687 94 11462ft 162kts
29-Sep-17 14:13 38.443476 -106.732205 94 11462ft 162kts
29-Sep-17 14:14 38.441885 -106.674504 94 11462ft 162kts
29-Sep-17 14:15 38.440321 -106.617027 94 11462ft 162kts
29-Sep-17 14:16 38.433798 -106.561478 111 11529ft 156kts
29-Sep-17 14:17 38.419049 -106.509278 116 11543ft 157kts
29-Sep-17 14:18 38.400276 -106.459193 115 11543ft 157kts
29-Sep-17 14:19 38.409207 -106.405267 73 11544ft 161kts
29-Sep-17 14:20 38.395459 -106.359871 145 11534ft 150kts
29-Sep-17 14:21 38.380339 -106.394921 286 11552ft 167kts
29-Sep-17 14:22 38.397510 -106.449932 286 11546ft 167kts
29-Sep-17 14:23 38.418082 -106.502066 294 11544ft 165kts
29-Sep-17 14:24 38.438710 -106.554180 287 11539ft 165kts
29-Sep-17 14:25 38.410043 -106.581113 222 11541ft 158kts
29-Sep-17 14:26 38.396481 -106.634772 240 11481ft 164kts
29-Sep-17 14:27 38.375778 -106.685715 240 11461ft 161kts
29-Sep-17 14:28 38.350226 -106.731855 226 11461ft 159kts
29-Sep-17 14:29 38.316490 -106.766703 196 11453ft 157kts
29-Sep-17 14:30 38.274668 -106.766491 147 11461ft 157kts
29-Sep-17 14:31 38.248110 -106.722311 126 11462ft 159kts
29-Sep-17 14:32 38.223237 -106.676097 126 11462ft 158kts
29-Sep-17 14:33 38.211857 -106.622186 99 11463ft 162kts
29-Sep-17 14:34 38.205571 -106.565845 99 11518ft 160kts
29-Sep-17 14:35 38.194203 -106.511783 112 11533ft 160kts
29-Sep-17 14:36 38.178758 -106.459552 113 11514ft 157kts
29-Sep-17 14:37 38.162217 -106.408604 115 11515ft 156kts
29-Sep-17 14:38 38.146185 -106.357834 110 11515ft 156kts
29-Sep-17 14:39 38.133084 -106.307760 111 11166ft 172kts
29-Sep-17 14:40 38.117587 -106.249181 111 10607ft 178kts
29-Sep-17 14:41 38.102436 -106.191625 111 10475ft 165kts
29-Sep-17 14:42 38.104071 -106.136634 74 10480ft 165kts
29-Sep-17 14:43 38.119371 -106.082096 74 10480ft 164kts
29-Sep-17 14:44 38.140001 -106.030546 58 10481ft 167kts
29-Sep-17 14:45 38.167010 -105.982459 58 10463ft 168kts
29-Sep-17 14:46 38.198152 -105.942644 44 10915ft 149kts
29-Sep-17 14:47 38.227337 -105.908506 39 11400ft 140kts
29-Sep-17 14:48 38.259443 -105.877964 32 11553ft 153kts
29-Sep-17 14:49 38.296604 -105.848273 32 11545ft 161kts
29-Sep-17 14:50 38.322619 -105.807669 89 11550ft 162kts
29-Sep-17 14:51 38.322625 -105.750082 89 11542ft 163kts
29-Sep-17 14:52 38.322612 -105.692200 89 11543ft 163kts
29-Sep-17 14:53 38.322993 -105.634202 86 11543ft 163kts
29-Sep-17 14:54 38.325377 -105.576594 84 11501ft 166kts
29-Sep-17 14:55 38.328895 -105.516542 84 11335ft 172kts
29-Sep-17 14:56 38.332999 -105.455669 84 11159ft 174kts
29-Sep-17 14:57 38.337237 -105.394165 84 11031ft 172kts
29-Sep-17 14:58 38.341286 -105.335717 85 11028ft 168kts
29-Sep-17 14:59 38.344133 -105.276630 88 11029ft 167kts
29-Sep-17 15:00 38.345880 -105.217484 87 11029ft 167kts
29-Sep-17 15:01 38.347643 -105.158478 87 11030ft 167kts
29-Sep-17 15:02 38.347644 -105.099758 91 11037ft 167kts
29-Sep-17 15:03 38.346071 -105.033237 91 9947ft 202kts
29-Sep-17 15:04 38.344402 -104.961244 91 8783ft 208kts
29-Sep-17 15:05 38.345360 -104.888092 88 7632ft 208kts
29-Sep-17 15:06 38.346000 -104.853743 88 7599ft 187kts
29-Sep-17 15:07 38.346050 -104.851077 88 7600ft 186kts
29-Sep-17 15:08 38.346079 -104.849526 88 7600ft 185kts
29-Sep-17 15:09 38.346116 -104.847465 88 7600ft 184kts
29-Sep-17 15:15 38.415807 -105.079681 125 6293ft 107kts
29-Sep-17 15:16 38.398195 -105.047261 125 7543ft 112kts
29-Sep-17 15:17 38.376204 -105.000984 112 7511ft 177kts
29-Sep-17 15:18 38.357605 -104.940735 111 7493ft 187kts
29-Sep-17 15:19 38.342837 -104.877884 90 7489ft 188kts
29-Sep-17 15:20 38.347850 -104.812174 66 7484ft 188kts
29-Sep-17 15:21 38.368245 -104.751972 59 7608ft 184kts
29-Sep-17 15:22 38.408572 -104.717814 26 7797ft 173kts
29-Sep-17 15:23 38.455029 -104.706088 5 7894ft 177kts
29-Sep-17 15:24 38.505615 -104.705149 3 7978ft 183kts
29-Sep-17 15:25 38.556758 -104.704317 1 8238ft 186kts
29-Sep-17 15:26 38.608522 -104.703698 2 8416ft 191kts
29-Sep-17 15:27 38.661566 -104.702953 359 8425ft 194kts
29-Sep-17 15:28 38.713188 -104.710666 338 8411ft 195kts
29-Sep-17 15:29 38.767477 -104.735635 359 7289ft 222kts
29-Sep-17 15:30 38.815281 -104.737294 359 7269ft 132kts
29-Sep-17 15:31 38.846771 -104.735928 47 7310ft 111kts
29-Sep-17 15:32 38.833591 -104.715828 174 6519ft 86kts
29-Sep-17 15:33 38.815776 -104.715892 177 6203ft 35kts
29-Sep-17 15:34 38.812515 -104.717457 281 6202ft 4kts
29-Sep-17 15:35 38.810562 -104.719529 178 6203ft 13kts
29-Sep-17 15:36 38.808910 -104.720091 177 6202ft 0kts
29-Sep-17 15:37 38.808910 -104.720091 177 6202ft 0kts

Navigation Log

Ident Type
Flight plan parsing failed, navigation log unavailable